createdAt,value
2019-04-28T00:01:04.050Z,99833.01
2019-04-28T00:03:33.187Z,99824.66
2019-04-28T00:06:02.252Z,99834.72
2019-04-28T00:08:31.885Z,99826.37
2019-04-28T00:11:01.751Z,99826.33
2019-04-28T00:13:32.124Z,99828.11
2019-04-28T00:16:01.718Z,99825.09
2019-04-28T00:18:31.732Z,99826.91
2019-04-28T00:21:20.915Z,99830.87
2019-04-28T00:24:07.689Z,99826.08
2019-04-28T00:26:41.626Z,99823.17
2019-04-28T00:29:11.229Z,99819.72
2019-04-28T00:31:41.344Z,99823.28
2019-04-28T00:34:11.489Z,99828.10
2019-04-28T00:36:43.067Z,99824.66
2019-04-28T00:39:12.523Z,99830.37
2019-04-28T00:41:42.114Z,99822.03
2019-04-28T00:44:12.034Z,99823.81
2019-04-28T00:46:42.095Z,99823.88
2019-04-28T00:49:11.847Z,99824.75
2019-04-28T00:51:41.604Z,99824.34
2019-04-28T00:54:12.068Z,99826.08
2019-04-28T00:56:41.969Z,99819.10
2019-04-28T00:59:11.920Z,99811.70
2019-04-28T01:01:47.164Z,99815.63
2019-04-28T01:04:16.357Z,99817.84
2019-04-28T01:06:45.419Z,99811.70
2019-04-28T01:09:14.518Z,99817.36
2019-04-28T01:11:43.641Z,99817.78
2019-04-28T01:14:12.764Z,99818.67
2019-04-28T01:16:47.774Z,99816.06
2019-04-28T01:19:21.581Z,99826.53
2019-04-28T01:22:13.029Z,99819.52
2019-04-28T01:24:42.063Z,99817.83
2019-04-28T01:27:30.434Z,99813.17
2019-04-28T01:30:08.311Z,99824.50
2019-04-28T01:32:41.394Z,99813.59
2019-04-28T01:35:10.476Z,99817.52
2019-04-28T01:37:40.715Z,99813.13
2019-04-28T01:40:09.995Z,99819.63
2019-04-28T01:42:41.063Z,99819.67
2019-04-28T01:45:10.561Z,99818.77
2019-04-28T01:47:40.455Z,99823.56
2019-04-28T01:50:10.258Z,99823.56
2019-04-28T01:52:40.103Z,99822.25
2019-04-28T01:55:10.136Z,99819.20
2019-04-28T01:57:39.982Z,99826.23
2019-04-28T02:00:22.327Z,99825.77
2019-04-28T02:02:41.754Z,99823.14
2019-04-28T02:05:10.825Z,99830.53
2019-04-28T02:07:40.761Z,99829.22
2019-04-28T02:10:10.304Z,99829.69
2019-04-28T02:12:40.303Z,99832.30
2019-04-28T02:15:10.473Z,99833.15
2019-04-28T02:17:40.265Z,99834.41
2019-04-28T02:20:10.484Z,99840.13
2019-04-28T02:23:10.677Z,99841.85
2019-04-28T02:25:39.964Z,99841.85
2019-04-28T02:28:09.418Z,99845.36
2019-04-28T02:30:48.492Z,99843.16
2019-04-28T02:33:11.198Z,99847.05
2019-04-28T02:35:41.857Z,99849.26
2019-04-28T02:38:11.556Z,99851.46
2019-04-28T02:40:40.829Z,99853.62
2019-04-28T02:43:11.423Z,99848.83
2019-04-28T02:45:41.402Z,99854.55
2019-04-28T02:48:15.915Z,99852.77
2019-04-28T02:51:06.237Z,99855.86
2019-04-28T02:53:40.658Z,99852.34
2019-04-28T02:56:11.225Z,99854.97
2019-04-28T02:58:41.626Z,99857.55
2019-04-28T03:01:18.792Z,99857.55
2019-04-28T03:03:41.344Z,99860.64
2019-04-28T03:06:10.885Z,99859.33
2019-04-28T03:08:40.631Z,99860.21
2019-04-28T03:11:10.714Z,99858.44
2019-04-28T03:13:41.248Z,99859.33
2019-04-28T03:16:10.964Z,99858.91
2019-04-28T03:18:41.306Z,99861.53
2019-04-28T03:21:11.433Z,99858.48
2019-04-28T03:23:40.732Z,99862.00
2019-04-28T03:26:34.565Z,99864.66
2019-04-28T03:29:20.632Z,99861.58
2019-04-28T03:32:25.361Z,99856.80
2019-04-28T03:34:45.715Z,99860.69
2019-04-28T03:37:14.759Z,99857.17
2019-04-28T03:39:43.810Z,99860.69
2019-04-28T03:42:12.873Z,99858.95
2019-04-28T03:44:41.916Z,99862.47
2019-04-28T03:47:10.978Z,99855.03
2019-04-28T03:49:43.236Z,99866.81
2019-04-28T03:52:10.988Z,99870.29
2019-04-28T03:54:40.995Z,99871.22
2019-04-28T03:57:11.334Z,99860.27
2019-04-28T03:59:43.511Z,99865.09
2019-04-28T04:02:11.724Z,99862.89
2019-04-28T04:04:43.443Z,99870.75
2019-04-28T04:07:12.464Z,99866.78
2019-04-28T04:09:55.200Z,99868.04
2019-04-28T04:12:55.139Z,99865.00
2019-04-28T04:15:43.145Z,99865.88
2019-04-28T04:18:21.067Z,99864.09
2019-04-28T04:20:51.236Z,99867.55
2019-04-28T04:23:23.155Z,99865.78
2019-04-28T04:25:51.435Z,99870.60
2019-04-28T04:28:20.737Z,99871.07
2019-04-28T04:30:50.769Z,99875.85
2019-04-28T04:33:20.967Z,99874.96
2019-04-28T04:35:51.604Z,99878.47
2019-04-28T04:38:21.791Z,99880.68
2019-04-28T04:40:51.602Z,99887.23
2019-04-28T04:43:23.294Z,99891.59
2019-04-28T04:45:54.984Z,99892.90
2019-04-28T04:48:24.004Z,99893.32
2019-04-28T04:50:53.041Z,99899.45
2019-04-28T04:53:22.077Z,99907.70
2019-04-28T04:55:52.723Z,99905.48
2019-04-28T04:58:21.845Z,99900.62
2019-04-28T05:01:10.477Z,99911.48
2019-04-28T05:03:40.243Z,99918.03
2019-04-28T05:06:29.801Z,99921.12
2019-04-28T05:08:59.955Z,99911.94
2019-04-28T05:11:29.990Z,99916.25
2019-04-28T05:13:59.694Z,99918.45
2019-04-28T05:16:29.792Z,99919.29
2019-04-28T05:19:00.064Z,99926.27
2019-04-28T05:21:33.180Z,99919.66
2019-04-28T05:24:37.308Z,99924.44
2019-04-28T05:27:06.411Z,99923.11
2019-04-28T05:29:35.509Z,99928.00
2019-04-28T05:32:04.574Z,99920.19
2019-04-28T05:34:33.673Z,99932.47
2019-04-28T05:37:02.771Z,99935.97
2019-04-28T05:39:31.879Z,99934.25
2019-04-28T05:42:01.139Z,99938.14
2019-04-28T05:44:31.969Z,99935.92
2019-04-28T05:47:01.015Z,99934.14
2019-04-28T05:49:52.227Z,99934.52
2019-04-28T05:52:40.340Z,99938.39
2019-04-28T05:55:15.181Z,99940.50
2019-04-28T05:57:53.091Z,99947.12
2019-04-28T06:00:44.174Z,99944.48
2019-04-28T06:03:14.706Z,99947.10
2019-04-28T06:05:43.761Z,99944.90
2019-04-28T06:08:44.037Z,99953.62
2019-04-28T06:11:30.855Z,99952.67
2019-04-28T06:14:00.141Z,99951.00
2019-04-28T06:16:30.462Z,99956.82
2019-04-28T06:19:00.199Z,99958.59
2019-04-28T06:21:29.372Z,99964.23
2019-04-28T06:23:58.513Z,99955.50
2019-04-28T06:26:27.607Z,99961.13
2019-04-28T06:28:56.749Z,99959.77
2019-04-28T06:31:25.816Z,99960.65
2019-04-28T06:33:54.867Z,99969.83
2019-04-28T06:36:23.890Z,99966.26
2019-04-28T06:38:53.057Z,99970.16
2019-04-28T06:41:22.183Z,99970.99
2019-04-28T06:43:51.255Z,99973.60
2019-04-28T06:46:20.357Z,99966.11
2019-04-28T06:48:49.391Z,99765.89
2019-04-28T06:51:18.474Z,99973.80
2019-04-28T06:53:47.630Z,99973.69
2019-04-28T06:56:16.780Z,99978.37
2019-04-28T06:58:58.202Z,99973.47
2019-04-28T07:01:17.059Z,99975.67
2019-04-28T07:03:46.106Z,99975.63
2019-04-28T07:06:15.352Z,99979.08
2019-04-28T07:08:44.448Z,99985.05
2019-04-28T07:11:13.586Z,99980.53
2019-04-28T07:13:42.755Z,99982.12
2019-04-28T07:16:11.970Z,99979.36
2019-04-28T07:18:41.051Z,99984.41
2019-04-28T07:21:17.428Z,99986.98
2019-04-28T07:23:47.102Z,99988.97
2019-04-28T07:26:16.325Z,99985.48
2019-04-28T07:28:45.447Z,99995.39
2019-04-28T07:31:14.736Z,99995.45
2019-04-28T07:33:43.777Z,99997.67
2019-04-28T07:36:13.007Z,99996.45
2019-04-28T07:38:42.106Z,99992.50
2019-04-28T07:41:11.394Z,100001.28
2019-04-28T07:43:40.613Z,99958.41
2019-04-28T07:46:09.708Z,99998.42
2019-04-28T07:48:38.812Z,100012.88
2019-04-28T07:51:09.118Z,100001.46
2019-04-28T07:53:43.567Z,100006.15
2019-04-28T07:56:12.707Z,100005.56
2019-04-28T07:58:41.959Z,100001.86
2019-04-28T08:01:13.058Z,100005.27
2019-04-28T08:03:49.291Z,100012.59
2019-04-28T08:06:13.311Z,100013.45
2019-04-28T08:08:42.460Z,100024.48
2019-04-28T08:11:11.788Z,100016.14
2019-04-28T08:13:41.042Z,100017.11
2019-04-28T08:16:10.719Z,100017.88
2019-04-28T08:18:40.034Z,100023.28
2019-04-28T08:21:12.473Z,100017.63
2019-04-28T08:23:47.446Z,100016.31
2019-04-28T08:26:12.378Z,100018.77
2019-04-28T08:28:41.547Z,100019.99
2019-04-28T08:31:12.340Z,100025.38
2019-04-28T08:33:48.341Z,100030.95
2019-04-28T08:36:18.038Z,100027.14
2019-04-28T08:38:49.093Z,100022.42
2019-04-28T08:41:18.463Z,100021.68
2019-04-28T08:43:47.538Z,100016.70
2019-04-28T08:46:16.617Z,100014.48
2019-04-28T08:48:45.822Z,100016.61
2019-04-28T08:51:14.937Z,100013.84
2019-04-28T08:53:44.401Z,100016.94
2019-04-28T08:56:13.693Z,100018.17
2019-04-28T08:58:43.156Z,100017.14
2019-04-28T09:01:20.218Z,100016.50
2019-04-28T09:03:50.091Z,100016.95
2019-04-28T09:06:26.653Z,100019.00
2019-04-28T09:08:58.996Z,100027.08
2019-04-28T09:11:39.499Z,100021.12
2019-04-28T09:14:09.276Z,100021.28
2019-04-28T09:16:49.395Z,100025.40
2019-04-28T09:19:18.556Z,100024.52
2019-04-28T09:21:47.733Z,100018.47
2019-04-28T09:24:17.173Z,100021.36
2019-04-28T09:26:46.669Z,100022.38
2019-04-28T09:29:15.849Z,100025.11
2019-04-28T09:31:44.939Z,100021.42
2019-04-28T09:34:14.110Z,100014.60
2019-04-28T09:36:43.462Z,100032.80
2019-04-28T09:40:04.924Z,100031.55
2019-04-28T09:42:52.161Z,100034.53
2019-04-28T09:45:37.229Z,100035.84
2019-04-28T09:48:06.427Z,100034.63
2019-04-28T09:50:35.683Z,100036.19
2019-04-28T09:53:04.794Z,100034.26
2019-04-28T09:55:33.874Z,100038.47
2019-04-28T09:58:03.073Z,100037.31
2019-04-28T10:00:32.594Z,100039.22
2019-04-28T10:03:02.221Z,100045.59
2019-04-28T10:05:31.345Z,100058.95
2019-04-28T10:08:00.626Z,100051.80
2019-04-28T10:10:29.911Z,100059.70
2019-04-28T10:12:59.150Z,100051.14
2019-04-28T10:15:28.329Z,100062.08
2019-04-28T10:17:57.559Z,100071.97
2019-04-28T10:20:26.708Z,100067.73
2019-04-28T10:22:55.897Z,100061.23
2019-04-28T10:25:25.075Z,100058.22
2019-04-28T10:27:54.298Z,100062.52
2019-04-28T10:30:23.445Z,100060.95
2019-04-28T10:32:52.833Z,100069.21
2019-04-28T10:35:22.208Z,100062.94
2019-04-28T10:37:54.041Z,100063.63
2019-04-28T10:40:38.826Z,100063.55
2019-04-28T10:43:07.990Z,100072.84
2019-04-28T10:45:46.740Z,100065.48
2019-04-28T10:48:15.922Z,100065.66
2019-04-28T10:50:45.510Z,100065.80
2019-04-28T10:53:14.650Z,100063.94
2019-04-28T10:55:43.753Z,100062.41
2019-04-28T10:58:12.914Z,100060.34
2019-04-28T11:00:42.339Z,100063.40
2019-04-28T11:03:11.533Z,100064.05
2019-04-28T11:05:56.878Z,100061.53
2019-04-28T11:08:33.744Z,100063.00
2019-04-28T11:11:09.467Z,100062.85
2019-04-28T11:13:38.818Z,100071.89
2019-04-28T11:16:08.401Z,100074.93
2019-04-28T11:18:37.617Z,100078.66
2019-04-28T11:21:06.835Z,100069.72
2019-04-28T11:23:36.025Z,100072.72
2019-04-28T11:26:05.240Z,100071.61
2019-04-28T11:28:34.396Z,100064.91
2019-04-28T11:31:03.650Z,100066.34
2019-04-28T11:33:42.275Z,100063.20
2019-04-28T11:36:11.334Z,100065.23
2019-04-28T11:38:40.424Z,100056.28
2019-04-28T11:41:11.586Z,100056.87
2019-04-28T11:43:40.356Z,100057.33
2019-04-28T11:46:11.079Z,100059.56
2019-04-28T11:48:40.165Z,100055.41
2019-04-28T11:51:09.414Z,100057.92
2019-04-28T11:53:38.484Z,100056.47
2019-04-28T11:56:07.630Z,100052.95
2019-04-28T11:58:36.704Z,100057.17
2019-04-28T12:01:07.495Z,100055.25
2019-04-28T12:03:36.588Z,100057.63
2019-04-28T12:06:05.766Z,100062.91
2019-04-28T12:08:34.805Z,100063.86
2019-04-28T12:11:12.308Z,100064.58
2019-04-28T12:14:07.015Z,100060.65
2019-04-28T12:16:54.033Z,100059.91
2019-04-28T12:19:38.983Z,100059.22
2019-04-28T12:22:08.360Z,100061.84
2019-04-28T12:24:37.640Z,100053.77
2019-04-28T12:27:07.090Z,100067.92
2019-04-28T12:29:36.558Z,100066.88
2019-04-28T12:32:06.396Z,100070.25
2019-04-28T12:34:35.566Z,100071.92
2019-04-28T12:37:06.040Z,100070.22
2019-04-28T12:39:35.430Z,100066.73
2019-04-28T12:42:05.033Z,100075.63
2019-04-28T12:44:34.212Z,100089.84
2019-04-28T12:47:04.028Z,100086.86
2019-04-28T12:49:57.896Z,100100.16
2019-04-28T12:52:26.984Z,100112.54
2019-04-28T12:54:56.350Z,100106.58
2019-04-28T12:57:25.856Z,100100.83
2019-04-28T13:00:05.076Z,100110.73
2019-04-28T13:02:59.520Z,100112.04
2019-04-28T13:05:29.222Z,100119.00
2019-04-28T13:07:58.679Z,100120.80
2019-04-28T13:10:27.860Z,100115.69
2019-04-28T13:12:59.063Z,100122.06
2019-04-28T13:15:28.383Z,100123.16
2019-04-28T13:17:57.473Z,100127.70
2019-04-28T13:20:32.297Z,100133.55
2019-04-28T13:23:01.619Z,100141.59
2019-04-28T13:25:30.908Z,100131.81
2019-04-28T13:28:00.268Z,100127.39
2019-04-28T13:30:29.454Z,100143.22
2019-04-28T13:32:58.714Z,100014.88
2019-04-28T13:35:28.027Z,100137.73
2019-04-28T13:37:57.133Z,100139.41
2019-04-28T13:40:30.068Z,100137.45
2019-04-28T13:42:59.180Z,100137.94
2019-04-28T13:45:28.418Z,100134.19
2019-04-28T13:47:57.510Z,100132.70
2019-04-28T13:50:31.234Z,100126.74
2019-04-28T13:53:00.295Z,100144.55
2019-04-28T13:55:51.126Z,100133.83
2019-04-28T13:58:22.406Z,100139.14
2019-04-28T14:01:10.530Z,100140.73
2019-04-28T14:04:01.699Z,100135.80
2019-04-28T14:06:31.717Z,100133.45
2019-04-28T14:09:00.782Z,100137.36
2019-04-28T14:11:29.949Z,100146.72
2019-04-28T14:13:59.067Z,100134.39
2019-04-28T14:16:28.193Z,100130.92
2019-04-28T14:18:57.329Z,100134.08
2019-04-28T14:21:26.489Z,100130.77
2019-04-28T14:23:55.549Z,100126.08
2019-04-28T14:26:24.621Z,100128.52
2019-04-28T14:28:53.793Z,100124.60
2019-04-28T14:31:22.948Z,100127.69
2019-04-28T14:33:51.989Z,100121.44
2019-04-28T14:36:21.125Z,100126.72
2019-04-28T14:38:50.361Z,100128.02
2019-04-28T14:41:19.481Z,100118.45
2019-04-28T14:43:48.665Z,100120.77
2019-04-28T14:46:25.493Z,100126.45
2019-04-28T14:48:54.952Z,100124.66
2019-04-28T14:51:24.301Z,100119.50
2019-04-28T14:53:53.488Z,100116.73
2019-04-28T14:56:22.756Z,100123.27
2019-04-28T14:58:51.929Z,100121.89
2019-04-28T15:01:55.461Z,100130.04
2019-04-28T15:04:35.401Z,100132.13
2019-04-28T15:07:10.072Z,100128.20
2019-04-28T15:09:57.140Z,100126.80
2019-04-28T15:12:26.359Z,100122.95
2019-04-28T15:14:55.612Z,100112.96
2019-04-28T15:17:24.817Z,100116.02
2019-04-28T15:19:54.087Z,100114.32
2019-04-28T15:22:23.455Z,100120.95
2019-04-28T15:24:52.717Z,100125.73
2019-04-28T15:27:21.891Z,100125.73
2019-04-28T15:45:57.344Z,100131.36
2019-04-28T15:48:26.422Z,100132.45
2019-04-28T15:50:55.690Z,100134.94
2019-04-28T15:53:24.826Z,100137.64
2019-04-28T15:56:09.096Z,100130.52
2019-04-28T15:58:39.197Z,100128.19
2019-04-28T16:01:08.526Z,100137.25
2019-04-28T16:03:37.759Z,100138.75
2019-04-28T16:06:06.843Z,100138.36
2019-04-28T16:08:35.982Z,100137.07
2019-04-28T16:11:05.083Z,100139.05
2019-04-28T16:13:34.156Z,100140.02
2019-04-28T16:16:03.466Z,100139.28
2019-04-28T16:18:32.642Z,100143.23
2019-04-28T16:21:01.816Z,100144.77
2019-04-28T16:23:31.108Z,100151.19
2019-04-28T16:26:00.194Z,100153.75
2019-04-28T16:28:29.220Z,100154.17
2019-04-28T16:30:58.318Z,100156.47
2019-04-28T16:33:27.435Z,100153.39
2019-04-28T16:35:56.575Z,100161.44
2019-04-28T16:38:25.725Z,100163.63
2019-04-28T16:40:54.924Z,100167.07
2019-04-28T16:43:23.988Z,100171.86
2019-04-28T16:45:53.005Z,100173.58
2019-04-28T16:48:22.099Z,100169.09
2019-04-28T16:50:51.098Z,100168.53
2019-04-28T16:53:20.211Z,100175.87
2019-04-28T16:56:06.665Z,100179.30
2019-04-28T16:58:53.124Z,100188.00
2019-04-28T17:01:41.373Z,100184.27
2019-04-28T17:04:10.463Z,100181.40
2019-04-28T17:06:39.642Z,100182.36
2019-04-28T17:09:08.991Z,100185.63
2019-04-28T17:11:38.080Z,100189.28
2019-04-28T17:14:07.261Z,100197.73
2019-04-28T17:16:36.346Z,100201.78
2019-04-28T17:19:05.449Z,100205.44
2019-04-28T17:21:34.503Z,100208.10
2019-04-28T17:24:03.625Z,100210.41
2019-04-28T17:26:32.705Z,100207.82
2019-04-28T17:29:04.508Z,100211.86
2019-04-28T17:31:33.632Z,100206.69
2019-04-28T17:34:03.053Z,100212.98
2019-04-28T17:36:32.136Z,100210.03
2019-04-28T17:39:06.460Z,100211.45
2019-04-28T17:41:34.784Z,100214.63
2019-04-28T17:44:03.973Z,100209.95
2019-04-28T17:46:33.113Z,100209.19
2019-04-28T17:49:02.276Z,100219.44
2019-04-28T17:51:31.381Z,100212.95
2019-04-28T17:54:00.493Z,100220.98
2019-04-28T17:56:29.616Z,100215.88
2019-04-28T17:58:58.783Z,100222.15
2019-04-28T18:01:52.847Z,100227.93
2019-04-28T18:04:51.967Z,100234.20
2019-04-28T18:07:32.530Z,100236.58
2019-04-28T18:10:01.669Z,100242.84
2019-04-28T18:12:30.835Z,100253.89
2019-04-28T18:15:09.148Z,100260.56
2019-04-28T18:18:00.133Z,100263.70
2019-04-28T18:20:29.243Z,100268.19
2019-04-28T18:22:58.389Z,100276.62
2019-04-28T18:25:27.576Z,100297.36
2019-04-28T18:27:56.700Z,100287.80
2019-04-28T18:30:27.649Z,100287.94
2019-04-28T18:33:18.434Z,100290.22
2019-04-28T18:36:02.714Z,100296.46
2019-04-28T18:38:55.678Z,100296.61
2019-04-28T18:41:49.506Z,100297.63
2019-04-28T18:44:20.578Z,100302.56
2019-04-28T18:46:49.738Z,100313.71
2019-04-28T18:49:18.844Z,100319.09
2019-04-28T18:51:47.906Z,100320.91
2019-04-28T18:54:17.020Z,100319.23
2019-04-28T18:56:46.118Z,100325.03
2019-04-28T18:59:15.348Z,100341.34
2019-04-28T19:02:00.125Z,100329.13
2019-04-28T19:04:29.234Z,100337.54
2019-04-28T19:07:05.418Z,100338.91
2019-04-28T19:09:51.458Z,100343.80
2019-04-28T19:12:42.676Z,100365.35
2019-04-28T19:15:29.543Z,100361.91
2019-04-28T19:18:04.580Z,100361.53
2019-04-28T19:20:33.598Z,100369.97
2019-04-28T19:23:02.641Z,100381.41
2019-04-28T19:25:31.647Z,100384.08
2019-04-28T19:28:00.679Z,100382.77
2019-04-28T19:30:29.771Z,100383.65
2019-04-28T19:32:58.940Z,100377.55
2019-04-28T19:35:28.016Z,100376.69
2019-04-28T19:37:57.116Z,100382.41
2019-04-28T19:40:26.121Z,100386.37
2019-04-28T19:42:55.249Z,100389.89
2019-04-28T19:45:24.263Z,100401.75
2019-04-28T19:47:53.370Z,100396.95
2019-04-28T19:50:22.531Z,100398.75
2019-04-28T19:52:51.577Z,100402.69
2019-04-28T19:55:24.755Z,100407.52
2019-04-28T19:58:05.886Z,100413.20
2019-04-28T20:00:48.098Z,100409.23
2019-04-28T20:03:17.248Z,100411.40
2019-04-28T20:05:46.285Z,100417.94
2019-04-28T20:08:15.281Z,100421.42
2019-04-28T20:10:44.312Z,100417.91
2019-04-28T20:13:13.357Z,100418.30
2019-04-28T20:15:42.429Z,100420.02
2019-04-28T20:18:11.495Z,100422.19
2019-04-28T20:20:40.587Z,100424.81
2019-04-28T20:23:09.670Z,100427.90
2019-04-28T20:25:38.715Z,100420.47
2019-04-28T20:28:07.797Z,100433.16
2019-04-28T20:30:36.861Z,100435.78
2019-04-28T20:33:07.572Z,100436.67
2019-04-28T20:35:40.004Z,100440.16
2019-04-28T20:38:28.005Z,100442.29
2019-04-28T20:41:16.073Z,100436.14
2019-04-28T20:43:45.130Z,100432.20
2019-04-28T20:46:14.206Z,100437.42
2019-04-28T20:48:43.270Z,100434.41
2019-04-28T20:51:12.411Z,100445.80
2019-04-28T20:53:41.445Z,100443.63
2019-04-28T20:56:10.502Z,100443.23
2019-04-28T20:58:39.570Z,100441.50
2019-04-28T21:01:08.595Z,100456.41
2019-04-28T21:03:38.616Z,100448.98
2019-04-28T21:06:07.859Z,100452.95
2019-04-28T21:08:38.138Z,100452.12
2019-04-28T21:11:07.198Z,100453.41
2019-04-28T21:13:36.237Z,100453.43
2019-04-28T21:16:05.323Z,100463.05
2019-04-28T21:18:34.376Z,100456.52
2019-04-28T21:21:03.403Z,100459.16
2019-04-28T21:23:32.435Z,100455.25
2019-04-28T21:26:01.526Z,100459.19
2019-04-28T21:28:30.530Z,100470.58
2019-04-28T21:30:59.612Z,100471.03
2019-04-28T21:33:28.627Z,100469.28
2019-04-28T21:35:57.723Z,100472.38
2019-04-28T21:38:26.780Z,100471.08
2019-04-28T21:40:55.872Z,100482.91
2019-04-28T21:43:48.993Z,100480.77
2019-04-28T21:46:45.822Z,100473.78
2019-04-28T21:49:26.418Z,100478.18
2019-04-28T21:51:55.459Z,100476.47
2019-04-28T21:54:24.545Z,100473.42
2019-04-28T21:56:53.635Z,100474.73
2019-04-28T21:59:22.626Z,100476.06
2019-04-28T22:01:51.711Z,100472.56
2019-04-28T22:04:20.744Z,100472.58
2019-04-28T22:06:49.774Z,100476.52
2019-04-28T22:09:18.938Z,100475.64
2019-04-28T22:11:48.022Z,100471.27
2019-04-28T22:14:17.084Z,100473.89
2019-04-28T22:16:46.120Z,100471.71
2019-04-28T22:19:15.154Z,100470.83
2019-04-28T22:21:44.165Z,100474.34
2019-04-28T22:24:22.563Z,100480.44
2019-04-28T22:26:53.499Z,100479.98
2019-04-28T22:29:24.184Z,100475.63
2019-04-28T22:31:53.188Z,100478.66
2019-04-28T22:34:22.215Z,100481.28
2019-04-28T22:36:51.273Z,100482.16
2019-04-28T22:39:20.322Z,100486.52
2019-04-28T22:41:49.535Z,100484.77
2019-04-28T22:44:18.633Z,100488.25
2019-04-28T22:46:47.727Z,100489.56
2019-04-28T22:49:16.873Z,100484.73
2019-04-28T22:51:46.092Z,100490.41
2019-04-28T22:54:20.879Z,100497.83
2019-04-28T22:56:59.536Z,100501.31
2019-04-28T22:59:32.579Z,100502.14
2019-04-28T23:02:15.832Z,100506.06
2019-04-28T23:05:18.908Z,100509.53
2019-04-28T23:07:47.927Z,100507.31
2019-04-28T23:10:16.952Z,100509.03
2019-04-28T23:12:47.014Z,100514.69
2019-04-28T23:15:16.106Z,100510.34
2019-04-28T23:17:45.103Z,100516.87
2019-04-28T23:20:14.424Z,100517.32
2019-04-28T23:22:47.540Z,100519.05
2019-04-28T23:25:16.581Z,100521.65
2019-04-28T23:27:45.595Z,100522.53
2019-04-28T23:30:33.919Z,100525.55
2019-04-28T23:33:02.921Z,100521.64
2019-04-28T23:35:32.048Z,100528.59
2019-04-28T23:38:01.108Z,100524.22
2019-04-28T23:40:30.139Z,100530.77
2019-04-28T23:43:04.098Z,100529.90
2019-04-28T23:45:33.119Z,100532.92
2019-04-28T23:48:02.140Z,100532.47
2019-04-28T23:50:43.245Z,100532.01
2019-04-28T23:53:15.257Z,100538.09
2019-04-28T23:55:44.331Z,100535.45
2019-04-28T23:58:15.727Z,100539.37
